Time;durP1;ratioP1;P1;durP2;ratioP2;P2;SDS_P1;SDS_P2;PMS_P1;PMS_P2;Temp;Humidity;BMP_temperature;BMP_pressure;BME280_temperature;BME280_humidity;BME280_pressure;Samples;Min_cycle;Max_cycle;Signal;HPM_P1;HPM_P2
2022/06/02 00:02:07;;;;;;;4.37;3.83;;;;;;;;;;4979498;28;20186;-58
2022/06/02 00:04:46;;;;;;;4.73;4.33;;;;;;;;;;4985117;28;20225;-58
2022/06/02 00:07:24;;;;;;;6.93;4.60;;;;;;;;;;4991271;28;20273;-58
2022/06/02 00:09:53;;;;;;;5.27;4.53;;;;;;;;;;4989378;28;20349;-58
2022/06/02 00:12:24;;;;;;;5.10;4.37;;;;;;;;;;4991471;28;20911;-58
2022/06/02 00:14:53;;;;;;;5.10;4.60;;;;;;;;;;4994797;28;20185;-57
2022/06/02 00:17:37;;;;;;;5.40;4.80;;;;;;;;;;4996462;28;20718;-57
2022/06/02 00:20:08;;;;;;;5.17;4.67;;;;;;;;;;4991854;28;21718;-59
2022/06/02 00:22:48;;;;;;;6.63;4.90;;;;;;;;;;4989142;28;20662;-59
2022/06/02 00:25:38;;;;;;;5.43;5.00;;;;;;;;;;4996703;28;20190;-57
2022/06/02 00:28:04;;;;;;;5.17;4.30;;;;;;;;;;4989133;28;20745;-58
2022/06/02 00:30:30;;;;;;;5.37;4.40;;;;;;;;;;4994909;28;20187;-58
2022/06/02 00:33:09;;;;;;;5.07;4.47;;;;;;;;;;4997630;28;20816;-59
2022/06/02 00:35:42;;;;;;;5.17;4.67;;;;;;;;;;4994759;28;20198;-58
2022/06/02 00:38:18;;;;;;;5.43;4.63;;;;;;;;;;4995105;28;20559;-58
2022/06/02 00:40:44;;;;;;;5.53;4.80;;;;;;;;;;4997476;28;20178;-58
2022/06/02 00:43:28;;;;;;;6.03;4.40;;;;;;;;;;4993622;28;20656;-57
2022/06/02 00:46:03;;;;;;;7.57;4.43;;;;;;;;;;4991056;28;20272;-57
2022/06/02 00:48:36;;;;;;;5.33;4.27;;;;;;;;;;4999789;28;20852;-57
2022/06/02 00:51:05;;;;;;;4.80;4.40;;;;;;;;;;4998191;28;20223;-57
2022/06/02 00:53:40;;;;;;;5.67;4.50;;;;;;;;;;4995642;28;20233;-58
2022/06/02 00:59:25;;;;;;;4.77;4.27;;;;;;;;;;4994481;28;20317;-58
2022/06/02 01:01:52;;;;;;;6.40;4.37;;;;;;;;;;4987871;28;20571;-57
2022/06/02 01:04:18;;;;;;;5.77;4.87;;;;;;;;;;4992753;28;20279;-58
2022/06/02 01:06:59;;;;;;;6.50;4.77;;;;;;;;;;4993699;28;20311;-57
2022/06/02 01:09:57;;;;;;;4.43;3.90;;;;;;;;;;4997371;28;20202;-57
2022/06/02 01:12:32;;;;;;;6.53;4.30;;;;;;;;;;4980113;28;20257;-58
2022/06/02 01:15:06;;;;;;;5.73;4.13;;;;;;;;;;4993740;28;20224;-58
2022/06/02 01:17:32;;;;;;;5.40;4.63;;;;;;;;;;4993876;28;20208;-59
2022/06/02 01:20:07;;;;;;;6.03;4.30;;;;;;;;;;4994371;28;20184;-57
2022/06/02 01:22:39;;;;;;;5.30;4.80;;;;;;;;;;4994260;28;20337;-58
2022/06/02 01:25:20;;;;;;;5.30;4.80;;;;;;;;;;4996440;28;20194;-58
2022/06/02 01:27:59;;;;;;;4.70;3.90;;;;;;;;;;4989004;28;21707;-58
2022/06/02 01:30:37;;;;;;;5.47;4.37;;;;;;;;;;4977237;28;20191;-58
2022/06/02 01:33:06;;;;;;;5.33;4.10;;;;;;;;;;4994387;28;20206;-58
2022/06/02 01:35:42;;;;;;;5.00;4.50;;;;;;;;;;4999285;28;20190;-58
2022/06/02 01:38:08;;;;;;;6.07;4.07;;;;;;;;;;4990767;28;20231;-58
2022/06/02 01:40:34;;;;;;;6.63;4.63;;;;;;;;;;4994864;28;20186;-58
2022/06/02 01:43:03;;;;;;;4.97;4.13;;;;;;;;;;4993921;28;20561;-57
2022/06/02 01:45:48;;;;;;;7.03;5.13;;;;;;;;;;4986226;28;20624;-58
2022/06/02 01:48:46;;;;;;;5.27;4.40;;;;;;;;;;4995525;28;20654;-57
2022/06/02 01:51:15;;;;;;;5.13;4.63;;;;;;;;;;4980506;28;20217;-57
2022/06/02 01:53:41;;;;;;;5.17;4.67;;;;;;;;;;4993481;28;20594;-58
2022/06/02 01:56:19;;;;;;;5.73;4.37;;;;;;;;;;4992843;28;20204;-58
2022/06/02 01:58:49;;;;;;;9.10;4.93;;;;;;;;;;4996870;28;20255;-58
2022/06/02 02:01:19;;;;;;;8.17;5.00;;;;;;;;;;4998682;28;20183;-58
2022/06/02 02:03:49;;;;;;;5.80;4.90;;;;;;;;;;5000298;28;20240;-58
2022/06/02 02:06:24;;;;;;;5.07;4.30;;;;;;;;;;4973219;28;20182;-57
2022/06/02 02:08:53;;;;;;;6.43;4.77;;;;;;;;;;4967289;28;20224;-57
2022/06/02 02:11:38;;;;;;;5.30;4.80;;;;;;;;;;4972512;28;20256;-57
2022/06/02 02:14:13;;;;;;;4.67;4.27;;;;;;;;;;4979099;28;20207;-58
2022/06/02 02:16:43;;;;;;;4.53;4.13;;;;;;;;;;4988584;28;20216;-58
2022/06/02 02:19:35;;;;;;;5.57;4.50;;;;;;;;;;4993415;28;20253;-58
2022/06/02 02:22:01;;;;;;;6.27;4.60;;;;;;;;;;4968581;28;20214;-58
2022/06/02 02:24:42;;;;;;;5.20;4.70;;;;;;;;;;4995715;28;20590;-57
2022/06/02 02:27:14;;;;;;;4.33;3.93;;;;;;;;;;4994037;28;20675;-57
2022/06/02 02:29:44;;;;;;;4.57;4.17;;;;;;;;;;5002456;28;20671;-58
2022/06/02 02:32:10;;;;;;;4.97;4.57;;;;;;;;;;4997790;28;20218;-58
2022/06/02 02:34:54;;;;;;;7.57;4.57;;;;;;;;;;4992254;28;20217;-58
2022/06/02 02:37:23;;;;;;;5.17;4.67;;;;;;;;;;4991220;28;20288;-58
2022/06/02 02:39:52;;;;;;;4.37;3.97;;;;;;;;;;4993198;28;20210;-58
2022/06/02 02:42:38;;;;;;;4.67;4.27;;;;;;;;;;4995972;28;20202;-57
2022/06/02 02:45:09;;;;;;;4.63;4.23;;;;;;;;;;4970921;28;20663;-57
2022/06/02 02:47:35;;;;;;;4.83;4.40;;;;;;;;;;4990441;28;20194;-58
2022/06/02 02:50:07;;;;;;;4.73;3.87;;;;;;;;;;4993062;28;20213;-58
2022/06/02 02:52:44;;;;;;;5.33;4.30;;;;;;;;;;4992895;28;20745;-57
2022/06/02 02:55:18;;;;;;;5.67;4.53;;;;;;;;;;4993919;28;20185;-58
2022/06/02 02:57:50;;;;;;;4.77;4.17;;;;;;;;;;4996125;28;20205;-58
2022/06/02 03:00:27;;;;;;;5.80;4.70;;;;;;;;;;4980596;28;20186;-57
2022/06/02 03:03:08;;;;;;;5.93;5.03;;;;;;;;;;4992910;28;20185;-58
2022/06/02 03:05:38;;;;;;;7.17;4.90;;;;;;;;;;4990235;28;20228;-58
2022/06/02 03:08:13;;;;;;;5.53;4.67;;;;;;;;;;4991115;28;20182;-57
2022/06/02 03:10:39;;;;;;;5.70;5.13;;;;;;;;;;4993911;28;20666;-57
2022/06/02 03:13:21;;;;;;;6.77;5.47;;;;;;;;;;4995702;28;20217;-57
2022/06/02 03:15:52;;;;;;;6.47;4.90;;;;;;;;;;4987997;28;20178;-56
2022/06/02 03:18:27;;;;;;;6.93;5.17;;;;;;;;;;4989179;28;20800;-58
2022/06/02 03:20:58;;;;;;;5.40;4.90;;;;;;;;;;4989999;28;20178;-58
2022/06/02 03:23:27;;;;;;;7.00;5.27;;;;;;;;;;4991941;28;20630;-57
2022/06/02 03:25:56;;;;;;;6.77;5.03;;;;;;;;;;4993522;28;20201;-57
2022/06/02 03:28:22;;;;;;;6.20;5.27;;;;;;;;;;4990270;28;20228;-58
2022/06/02 03:31:07;;;;;;;9.03;5.60;;;;;;;;;;4993501;28;20194;-57
2022/06/02 03:33:33;;;;;;;7.57;5.50;;;;;;;;;;4995955;28;20324;-57
2022/06/02 03:36:19;;;;;;;6.67;5.97;;;;;;;;;;4989572;28;20212;-57
2022/06/02 03:39:05;;;;;;;7.60;5.73;;;;;;;;;;4994504;28;20189;-57
2022/06/02 03:41:31;;;;;;;9.07;6.13;;;;;;;;;;4995157;28;20220;-57
2022/06/02 03:43:57;;;;;;;6.83;5.70;;;;;;;;;;4989069;28;20267;-57
2022/06/02 03:46:35;;;;;;;6.83;5.83;;;;;;;;;;4994587;28;20604;-58
2022/06/02 03:49:10;;;;;;;6.87;5.60;;;;;;;;;;4993637;28;20273;-57
2022/06/02 03:51:36;;;;;;;6.03;5.13;;;;;;;;;;4998610;28;20196;-57
2022/06/02 03:54:01;;;;;;;6.70;5.47;;;;;;;;;;4997648;28;20189;-57
2022/06/02 03:56:50;;;;;;;6.70;5.30;;;;;;;;;;4999604;28;20201;-58
2022/06/02 03:59:21;;;;;;;7.30;4.83;;;;;;;;;;4992262;28;20269;-57
2022/06/02 04:01:51;;;;;;;9.03;5.70;;;;;;;;;;4990970;28;20371;-57
2022/06/02 04:04:23;;;;;;;6.73;5.70;;;;;;;;;;4993806;28;20352;-57
2022/06/02 04:06:50;;;;;;;6.47;5.47;;;;;;;;;;4992831;28;20217;-58
2022/06/02 04:09:28;;;;;;;7.87;6.07;;;;;;;;;;4988866;28;20663;-57
2022/06/02 04:15:01;;;;;;;8.27;5.60;;;;;;;;;;4994656;28;20193;-58
2022/06/02 04:17:38;;;;;;;6.90;6.20;;;;;;;;;;5001579;28;20196;-57
2022/06/02 04:23:18;;;;;;;7.03;6.10;;;;;;;;;;4987260;28;20217;-58
2022/06/02 04:26:02;;;;;;;7.47;6.17;;;;;;;;;;4988315;28;20194;-58
2022/06/02 04:28:34;;;;;;;9.27;6.27;;;;;;;;;;4981932;28;20712;-58
2022/06/02 04:31:20;;;;;;;6.60;5.90;;;;;;;;;;4988337;28;20194;-56
2022/06/02 04:33:49;;;;;;;8.70;5.63;;;;;;;;;;4965207;28;20291;-57
2022/06/02 04:36:21;;;;;;;6.80;6.17;;;;;;;;;;4985318;28;20182;-57
2022/06/02 04:38:59;;;;;;;8.10;6.30;;;;;;;;;;4990933;28;20198;-58
2022/06/02 04:41:34;;;;;;;12.50;6.53;;;;;;;;;;4992053;28;20202;-57
2022/06/02 04:44:00;;;;;;;9.27;6.40;;;;;;;;;;4986237;28;20272;-57
2022/06/02 04:46:35;;;;;;;7.67;6.23;;;;;;;;;;4981266;28;20194;-57
2022/06/02 04:49:08;;;;;;;8.47;6.70;;;;;;;;;;4980451;28;20205;-57
2022/06/02 04:51:37;;;;;;;7.13;6.43;;;;;;;;;;4977946;28;20269;-58
2022/06/02 04:54:21;;;;;;;7.50;5.83;;;;;;;;;;4974247;28;20190;-58
2022/06/02 04:56:51;;;;;;;9.40;6.40;;;;;;;;;;4979784;28;20185;-58
2022/06/02 04:59:17;;;;;;;7.13;5.53;;;;;;;;;;4988203;28;20186;-58
2022/06/02 05:02:03;;;;;;;7.77;6.60;;;;;;;;;;4979625;28;20287;-57
2022/06/02 05:04:51;;;;;;;9.00;6.60;;;;;;;;;;4935563;28;1051682;-58
2022/06/02 05:07:36;;;;;;;7.50;6.57;;;;;;;;;;4982711;28;20619;-58
2022/06/02 05:10:14;;;;;;;8.53;6.37;;;;;;;;;;4991523;28;20930;-58
2022/06/02 05:12:58;;;;;;;6.13;5.53;;;;;;;;;;4987494;28;20224;-58
2022/06/02 05:15:30;;;;;;;7.53;6.00;;;;;;;;;;4997101;28;20686;-57
2022/06/02 05:18:02;;;;;;;6.77;6.13;;;;;;;;;;4981507;28;20225;-57
2022/06/02 05:20:32;;;;;;;7.63;6.20;;;;;;;;;;4983695;28;20190;-57
2022/06/02 05:23:02;;;;;;;7.27;6.50;;;;;;;;;;4986154;28;20555;-57
2022/06/02 05:25:29;;;;;;;12.80;11.47;;;;;;;;;;4976973;28;20304;-59
2022/06/02 05:27:55;;;;;;;14.13;12.07;;;;;;;;;;4992610;28;20710;-59
2022/06/02 05:30:20;;;;;;;13.40;11.63;;;;;;;;;;4984859;28;20193;-60
2022/06/02 05:32:46;;;;;;;14.53;11.60;;;;;;;;;;4990692;28;21091;-58
2022/06/02 05:35:17;;;;;;;15.50;12.10;;;;;;;;;;4974867;28;20248;-58
2022/06/02 05:37:46;;;;;;;14.87;13.37;;;;;;;;;;5002761;28;20185;-58
2022/06/02 05:40:12;;;;;;;13.27;11.70;;;;;;;;;;4986851;28;20732;-57
2022/06/02 05:42:43;;;;;;;15.03;11.37;;;;;;;;;;4982503;28;20182;-57
2022/06/02 05:45:35;;;;;;;11.80;10.60;;;;;;;;;;4984295;28;20217;-57
2022/06/02 05:48:07;;;;;;;11.47;10.30;;;;;;;;;;4964242;28;20296;-57
2022/06/02 05:50:42;;;;;;;11.57;10.40;;;;;;;;;;4992176;28;20221;-57
2022/06/02 05:53:22;;;;;;;13.07;10.70;;;;;;;;;;4987417;28;20213;-57
2022/06/02 05:56:02;;;;;;;10.13;9.13;;;;;;;;;;4988126;28;20741;-57
2022/06/02 05:58:28;;;;;;;10.33;9.07;;;;;;;;;;4987785;28;20659;-56
2022/06/02 06:00:59;;;;;;;9.80;8.90;;;;;;;;;;4986428;28;20186;-56
2022/06/02 06:03:32;;;;;;;9.27;8.37;;;;;;;;;;4982316;28;20194;-57
2022/06/02 06:06:18;;;;;;;9.70;8.70;;;;;;;;;;4980649;28;20615;-57
2022/06/02 06:08:47;;;;;;;9.47;8.03;;;;;;;;;;4985354;28;20193;-57
2022/06/02 06:11:32;;;;;;;9.60;8.53;;;;;;;;;;4988615;28;20191;-57
2022/06/02 06:14:01;;;;;;;11.30;9.77;;;;;;;;;;4989540;28;20205;-56
2022/06/02 06:16:31;;;;;;;12.33;9.13;;;;;;;;;;4997429;28;20193;-57
2022/06/02 06:19:16;;;;;;;11.40;8.27;;;;;;;;;;4994124;28;20194;-57
2022/06/02 06:21:42;;;;;;;11.03;8.47;;;;;;;;;;4982640;28;20633;-58
2022/06/02 06:24:08;;;;;;;11.67;9.87;;;;;;;;;;4986134;28;20276;-57
2022/06/02 06:26:39;;;;;;;10.97;9.73;;;;;;;;;;4990624;28;20417;-57
2022/06/02 06:29:26;;;;;;;10.20;9.20;;;;;;;;;;4990941;28;20197;-57
2022/06/02 06:32:15;;;;;;;11.67;9.83;;;;;;;;;;4995672;28;20229;-56
2022/06/02 06:34:47;;;;;;;11.03;8.97;;;;;;;;;;4989636;28;20790;-57
2022/06/02 06:37:28;;;;;;;9.00;8.10;;;;;;;;;;4991298;28;20206;-57
2022/06/02 06:39:58;;;;;;;9.03;7.57;;;;;;;;;;4992510;28;20201;-56
2022/06/02 06:42:30;;;;;;;7.90;7.10;;;;;;;;;;4987522;28;20253;-57
2022/06/02 06:45:16;;;;;;;8.53;7.43;;;;;;;;;;4984768;28;20185;-58
2022/06/02 06:47:43;;;;;;;8.67;6.53;;;;;;;;;;4982201;28;20333;-58
2022/06/02 06:50:20;;;;;;;8.17;7.10;;;;;;;;;;4983017;28;20194;-56
2022/06/02 06:52:46;;;;;;;7.87;7.07;;;;;;;;;;4979459;28;21184;-57
2022/06/02 06:55:31;;;;;;;13.07;7.57;;;;;;;;;;4980893;28;20268;-57
2022/06/02 06:57:59;;;;;;;9.43;7.33;;;;;;;;;;4987848;28;20284;-57
2022/06/02 07:00:28;;;;;;;9.87;6.83;;;;;;;;;;4989608;28;20309;-57
2022/06/02 07:03:06;;;;;;;9.93;7.37;;;;;;;;;;4996391;28;20193;-57
2022/06/02 07:05:33;;;;;;;9.13;6.80;;;;;;;;;;4995236;28;20623;-57
2022/06/02 07:08:06;;;;;;;8.77;6.67;;;;;;;;;;4991934;28;20655;-57
2022/06/02 07:10:50;;;;;;;7.53;6.00;;;;;;;;;;4994821;28;20262;-58
2022/06/02 07:13:18;;;;;;;7.80;6.07;;;;;;;;;;4990494;28;20213;-57
2022/06/02 07:15:49;;;;;;;7.40;6.60;;;;;;;;;;4995785;28;20527;-58
2022/06/02 07:18:21;;;;;;;7.50;6.65;;;;;;;;;;4994600;28;20321;-58
2022/06/02 07:20:49;;;;;;;6.93;6.20;;;;;;;;;;4997307;28;20265;-58
2022/06/02 07:23:24;;;;;;;7.20;6.50;;;;;;;;;;4998756;28;20248;-58
2022/06/02 07:26:09;;;;;;;9.35;6.88;;;;;;;;;;4996223;28;20189;-57
2022/06/02 07:28:55;;;;;;;7.72;6.72;;;;;;;;;;4993163;28;20609;-58
2022/06/02 07:31:48;;;;;;;7.75;6.57;;;;;;;;;;4992450;28;20189;-58
2022/06/02 07:34:32;;;;;;;7.72;6.63;;;;;;;;;;4973594;28;20206;-57
2022/06/02 07:37:06;;;;;;;7.00;6.32;;;;;;;;;;4993542;28;20186;-57
2022/06/02 07:39:41;;;;;;;7.32;5.95;;;;;;;;;;4993802;28;20197;-57
2022/06/02 07:42:11;;;;;;;7.70;6.90;;;;;;;;;;4994484;28;21090;-57
2022/06/02 07:44:56;;;;;;;6.57;5.75;;;;;;;;;;4992771;28;20182;-58
2022/06/02 07:47:42;;;;;;;7.28;6.45;;;;;;;;;;4989103;28;20216;-58
2022/06/02 07:50:14;;;;;;;6.53;5.43;;;;;;;;;;4999006;28;20722;-58
2022/06/02 07:52:59;;;;;;;6.43;5.13;;;;;;;;;;4994676;28;20209;-58
2022/06/02 07:55:30;;;;;;;5.78;4.93;;;;;;;;;;4991325;28;20229;-57
2022/06/02 07:58:04;;;;;;;5.72;4.90;;;;;;;;;;4995754;28;20197;-57
2022/06/02 08:00:32;;;;;;;5.07;4.63;;;;;;;;;;4989554;28;20271;-58
2022/06/02 08:03:17;;;;;;;6.18;5.30;;;;;;;;;;4996063;28;20655;-58
2022/06/02 08:06:09;;;;;;;4.45;4.05;;;;;;;;;;4977831;28;20281;-58
2022/06/02 08:08:41;;;;;;;5.32;3.97;;;;;;;;;;4978295;28;20217;-58
2022/06/02 08:11:19;;;;;;;5.40;4.30;;;;;;;;;;4984233;28;20262;-59
2022/06/02 08:13:49;;;;;;;4.38;3.97;;;;;;;;;;4978929;28;20210;-58
2022/06/02 08:16:15;;;;;;;4.18;3.72;;;;;;;;;;4983388;28;20686;-58
2022/06/02 08:18:47;;;;;;;4.55;4.13;;;;;;;;;;4980442;28;20269;-57
2022/06/02 08:21:25;;;;;;;4.13;3.72;;;;;;;;;;4982516;28;20193;-58
2022/06/02 08:24:10;;;;;;;5.75;3.63;;;;;;;;;;4990909;28;20182;-57
2022/06/02 08:26:40;;;;;;;3.72;3.42;;;;;;;;;;4988328;28;20201;-57
2022/06/02 08:29:10;;;;;;;5.60;3.72;;;;;;;;;;4991068;28;20213;-57
2022/06/02 08:31:54;;;;;;;5.85;3.20;;;;;;;;;;4980960;28;20190;-56
2022/06/02 08:34:29;;;;;;;5.05;4.00;;;;;;;;;;4994856;28;20189;-57
2022/06/02 08:37:14;;;;;;;7.97;3.97;;;;;;;;;;4989294;28;20177;-57
2022/06/02 08:39:45;;;;;;;3.78;3.38;;;;;;;;;;4987555;28;20549;-57
2022/06/02 08:42:33;;;;;;;3.60;3.28;;;;;;;;;;4990355;28;20651;-58
2022/06/02 08:45:02;;;;;;;3.70;3.38;;;;;;;;;;4989796;28;20538;-56
2022/06/02 08:47:34;;;;;;;5.00;3.80;;;;;;;;;;4982042;28;20679;-58
2022/06/02 08:50:20;;;;;;;4.60;3.30;;;;;;;;;;4986909;28;20181;-58
2022/06/02 08:53:03;;;;;;;4.53;3.38;;;;;;;;;;4967311;28;20204;-57
2022/06/02 08:55:49;;;;;;;3.30;2.90;;;;;;;;;;4974691;28;20610;-57
2022/06/02 08:58:21;;;;;;;3.67;3.08;;;;;;;;;;4960617;28;20634;-57
2022/06/02 09:00:54;;;;;;;4.00;3.58;;;;;;;;;;4977759;28;20194;-58
2022/06/02 09:03:43;;;;;;;5.00;3.55;;;;;;;;;;4997961;28;20190;-57
2022/06/02 09:06:12;;;;;;;3.92;3.58;;;;;;;;;;4990096;28;20228;-57
2022/06/02 09:08:58;;;;;;;4.40;3.55;;;;;;;;;;4985505;28;20668;-58
2022/06/02 09:11:28;;;;;;;4.85;3.47;;;;;;;;;;4991442;28;20320;-58
2022/06/02 09:13:54;;;;;;;4.95;4.15;;;;;;;;;;4986537;28;20210;-58
2022/06/02 09:16:21;;;;;;;5.13;3.80;;;;;;;;;;4994385;28;20551;-58
2022/06/02 09:18:47;;;;;;;4.40;3.50;;;;;;;;;;4993580;28;20195;-57
2022/06/02 09:21:16;;;;;;;4.50;4.20;;;;;;;;;;4982263;28;20565;-56
2022/06/02 09:23:46;;;;;;;4.00;3.63;;;;;;;;;;4988012;28;20300;-57
2022/06/02 09:26:31;;;;;;;4.85;4.45;;;;;;;;;;4989174;28;20946;-58
2022/06/02 09:29:15;;;;;;;5.38;4.55;;;;;;;;;;4990971;28;20313;-57
2022/06/02 09:31:41;;;;;;;5.50;5.03;;;;;;;;;;4985638;28;20193;-58
2022/06/02 09:34:30;;;;;;;49.20;14.43;;;;;;;;;;4985409;28;20187;-60
2022/06/02 09:37:01;;;;;;;14.38;13.18;;;;;;;;;;4987087;28;20245;-60
2022/06/02 09:39:45;;;;;;;12.68;11.57;;;;;;;;;;4990121;28;20175;-60
2022/06/02 09:42:39;;;;;;;13.75;12.50;;;;;;;;;;4986511;28;20706;-61
2022/06/02 09:45:11;;;;;;;12.38;11.27;;;;;;;;;;4962048;28;20204;-60
2022/06/02 09:47:45;;;;;;;12.68;11.40;;;;;;;;;;4995675;28;20221;-61
2022/06/02 09:50:30;;;;;;;11.60;10.73;;;;;;;;;;4975103;28;20213;-61
2022/06/02 09:53:01;;;;;;;12.05;11.05;;;;;;;;;;4982888;28;20765;-60
2022/06/02 09:55:30;;;;;;;10.23;9.32;;;;;;;;;;4990305;28;20190;-60
2022/06/02 09:58:05;;;;;;;9.23;8.43;;;;;;;;;;4977376;28;20220;-60
2022/06/02 10:00:40;;;;;;;10.25;9.35;;;;;;;;;;4975124;28;20208;-60
2022/06/02 10:03:25;;;;;;;10.05;9.18;;;;;;;;;;4983266;28;20670;-61
2022/06/02 10:05:57;;;;;;;9.65;8.85;;;;;;;;;;4988918;28;20200;-61
2022/06/02 10:08:53;;;;;;;9.68;8.77;;;;;;;;;;4981009;28;20643;-60
2022/06/02 10:11:38;;;;;;;9.82;9.02;;;;;;;;;;4938077;28;20207;-61
2022/06/02 10:14:36;;;;;;;11.35;10.18;;;;;;;;;;4988113;28;20237;-61
2022/06/02 10:17:08;;;;;;;10.88;8.70;;;;;;;;;;4955739;28;20209;-61
2022/06/02 10:19:34;;;;;;;10.68;9.68;;;;;;;;;;4982954;28;20200;-61
2022/06/02 10:22:10;;;;;;;10.13;9.30;;;;;;;;;;4983239;28;20185;-60
2022/06/02 10:24:40;;;;;;;9.75;8.85;;;;;;;;;;4984034;28;20210;-60
2022/06/02 10:27:06;;;;;;;9.65;8.75;;;;;;;;;;4984795;28;20206;-60
2022/06/02 10:29:38;;;;;;;9.93;9.07;;;;;;;;;;4984285;28;20328;-60
2022/06/02 10:32:07;;;;;;;9.85;8.95;;;;;;;;;;4978042;28;20214;-60
2022/06/02 10:34:52;;;;;;;9.70;8.80;;;;;;;;;;4978578;28;20191;-61
2022/06/02 10:37:33;;;;;;;9.43;8.63;;;;;;;;;;4984009;28;20177;-60
2022/06/02 10:40:05;;;;;;;9.68;8.77;;;;;;;;;;4993669;28;20721;-60
2022/06/02 10:42:35;;;;;;;10.10;9.20;;;;;;;;;;4994618;28;20879;-61
2022/06/02 10:45:01;;;;;;;8.15;7.53;;;;;;;;;;4984595;28;20190;-61
2022/06/02 10:47:36;;;;;;;7.95;7.25;;;;;;;;;;4993709;28;21055;-61
2022/06/02 10:50:02;;;;;;;8.07;6.90;;;;;;;;;;4989651;28;20693;-60
2022/06/02 10:52:44;;;;;;;7.28;6.57;;;;;;;;;;4983433;28;20610;-60
2022/06/02 10:55:28;;;;;;;7.25;6.55;;;;;;;;;;4987331;28;20265;-61
2022/06/02 10:58:08;;;;;;;9.68;8.00;;;;;;;;;;4986622;28;20190;-60
2022/06/02 11:00:55;;;;;;;9.05;8.07;;;;;;;;;;4993198;28;20801;-60
2022/06/02 11:03:24;;;;;;;9.43;8.55;;;;;;;;;;4991395;28;20197;-60
2022/06/02 11:05:56;;;;;;;9.00;8.20;;;;;;;;;;4989333;28;21150;-60
2022/06/02 11:08:22;;;;;;;20.17;9.48;;;;;;;;;;4984770;28;20260;-60
2022/06/02 11:10:48;;;;;;;8.43;7.72;;;;;;;;;;4990037;28;20689;-60
2022/06/02 11:13:22;;;;;;;8.02;7.25;;;;;;;;;;4991023;28;20224;-60
2022/06/02 11:15:54;;;;;;;8.02;7.22;;;;;;;;;;4994099;28;20226;-60
2022/06/02 11:18:23;;;;;;;7.60;6.85;;;;;;;;;;4987716;28;20190;-61
2022/06/02 11:21:12;;;;;;;6.97;6.38;;;;;;;;;;4986116;28;20623;-60
2022/06/02 11:23:45;;;;;;;8.52;6.43;;;;;;;;;;4984323;28;20190;-60
2022/06/02 11:26:30;;;;;;;9.15;6.10;;;;;;;;;;4964029;28;20404;-60
2022/06/02 11:29:01;;;;;;;9.05;6.00;;;;;;;;;;4971726;28;20214;-60
2022/06/02 11:31:48;;;;;;;6.15;5.70;;;;;;;;;;4964614;28;20653;-60
2022/06/02 11:34:33;;;;;;;6.45;5.95;;;;;;;;;;4985598;28;20236;-60
2022/06/02 11:37:11;;;;;;;6.20;5.70;;;;;;;;;;4988214;28;20201;-61
2022/06/02 11:39:56;;;;;;;7.57;5.95;;;;;;;;;;4992682;28;20240;-60
2022/06/02 11:42:22;;;;;;;6.10;4.93;;;;;;;;;;4984388;28;20198;-61
2022/06/02 11:44:54;;;;;;;6.97;5.07;;;;;;;;;;4982249;28;20528;-61
2022/06/02 11:47:33;;;;;;;4.50;4.10;;;;;;;;;;4985446;28;20187;-61
2022/06/02 11:50:08;;;;;;;5.38;4.70;;;;;;;;;;4984936;28;20201;-61
2022/06/02 11:52:38;;;;;;;6.00;5.00;;;;;;;;;;4984794;28;20274;-61
2022/06/02 11:55:23;;;;;;;5.82;5.30;;;;;;;;;;4989204;28;20721;-62
2022/06/02 11:58:02;;;;;;;5.20;4.72;;;;;;;;;;4992698;28;20677;-60
2022/06/02 12:00:37;;;;;;;5.97;5.18;;;;;;;;;;4988821;28;20186;-61
2022/06/02 12:03:15;;;;;;;5.15;4.75;;;;;;;;;;4979959;28;20272;-61
2022/06/02 12:06:00;;;;;;;6.20;5.38;;;;;;;;;;4975672;28;20256;-61
2022/06/02 12:08:29;;;;;;;5.00;4.50;;;;;;;;;;4985712;28;20194;-62
2022/06/02 12:11:14;;;;;;;4.03;3.72;;;;;;;;;;4990721;28;20204;-62
2022/06/02 12:13:53;;;;;;;4.40;4.10;;;;;;;;;;4990135;28;20337;-62
2022/06/02 12:16:22;;;;;;;5.90;4.30;;;;;;;;;;4998235;28;20213;-63
2022/06/02 12:18:53;;;;;;;4.47;4.07;;;;;;;;;;4988053;28;20282;-59
2022/06/02 12:21:27;;;;;;;5.32;4.20;;;;;;;;;;4988535;28;20183;-62
2022/06/02 12:24:03;;;;;;;4.40;3.88;;;;;;;;;;4990547;28;20616;-63
2022/06/02 12:26:43;;;;;;;4.45;4.05;;;;;;;;;;4982580;28;20181;-62
2022/06/02 12:29:14;;;;;;;4.55;4.15;;;;;;;;;;4985203;28;20246;-61
2022/06/02 12:31:40;;;;;;;4.70;4.30;;;;;;;;;;4987254;28;20317;-62
2022/06/02 12:34:24;;;;;;;5.18;4.68;;;;;;;;;;4981756;28;20253;-61
2022/06/02 12:37:00;;;;;;;4.97;4.53;;;;;;;;;;4991803;28;20636;-61
2022/06/02 12:39:40;;;;;;;4.35;3.83;;;;;;;;;;4984438;28;20197;-61
2022/06/02 12:42:20;;;;;;;4.57;4.18;;;;;;;;;;4990241;28;20186;-63
2022/06/02 12:45:05;;;;;;;5.65;4.00;;;;;;;;;;4998214;28;20217;-61
2022/06/02 12:47:50;;;;;;;4.15;3.70;;;;;;;;;;4994745;28;20208;-61
2022/06/02 12:50:18;;;;;;;5.30;3.80;;;;;;;;;;4982515;28;20761;-61
2022/06/02 12:52:47;;;;;;;3.95;3.40;;;;;;;;;;4993259;28;20205;-61
2022/06/02 12:55:43;;;;;;;3.20;2.92;;;;;;;;;;4982911;28;20263;-62
2022/06/02 12:58:27;;;;;;;10.07;4.38;;;;;;;;;;4963546;28;20211;-61
2022/06/02 13:01:02;;;;;;;13.13;4.45;;;;;;;;;;4981304;28;20192;-61
2022/06/02 13:03:47;;;;;;;4.75;4.00;;;;;;;;;;4997459;28;20240;-61
2022/06/02 13:06:28;;;;;;;4.50;4.10;;;;;;;;;;4990579;28;20190;-62
2022/06/02 13:09:16;;;;;;;4.35;3.92;;;;;;;;;;4987126;28;20317;-62
2022/06/02 13:11:51;;;;;;;4.47;3.85;;;;;;;;;;4981768;28;20190;-61
2022/06/02 13:14:17;;;;;;;5.03;4.60;;;;;;;;;;4990904;28;20194;-61
2022/06/02 13:17:02;;;;;;;4.38;4.07;;;;;;;;;;4980718;28;20798;-61
2022/06/02 13:19:46;;;;;;;4.57;4.10;;;;;;;;;;4983608;28;20656;-61
2022/06/02 13:22:21;;;;;;;4.53;4.13;;;;;;;;;;4989888;28;20680;-61
2022/06/02 13:25:03;;;;;;;4.07;3.67;;;;;;;;;;4979206;28;20204;-62
2022/06/02 13:27:35;;;;;;;8.32;4.45;;;;;;;;;;4986724;28;20225;-61
2022/06/02 13:30:01;;;;;;;5.63;3.47;;;;;;;;;;4993932;28;20550;-61
2022/06/02 13:32:27;;;;;;;4.03;3.33;;;;;;;;;;4994386;28;20754;-62
2022/06/02 13:35:11;;;;;;;9.63;3.85;;;;;;;;;;4993142;28;20716;-61
2022/06/02 13:37:42;;;;;;;4.25;3.95;;;;;;;;;;4979653;28;20301;-61
2022/06/02 13:40:14;;;;;;;16.13;4.90;;;;;;;;;;4990500;28;20206;-61
2022/06/02 13:42:43;;;;;;;3.70;3.50;;;;;;;;;;4989544;28;20245;-61
2022/06/02 13:45:12;;;;;;;4.22;3.53;;;;;;;;;;4989984;28;20186;-61
2022/06/02 13:47:57;;;;;;;3.47;3.28;;;;;;;;;;4982369;28;20638;-61
2022/06/02 13:50:30;;;;;;;4.35;3.95;;;;;;;;;;4994558;28;20190;-61
2022/06/02 13:53:02;;;;;;;4.25;3.95;;;;;;;;;;4997931;28;20210;-59
2022/06/02 13:58:22;;;;;;;4.00;3.70;;;;;;;;;;4983276;28;20185;-61
2022/06/02 14:00:55;;;;;;;3.50;3.28;;;;;;;;;;4976541;28;20179;-61
2022/06/02 14:03:30;;;;;;;3.50;3.30;;;;;;;;;;4993046;28;20713;-61
2022/06/02 14:06:05;;;;;;;4.35;3.13;;;;;;;;;;5002722;28;20193;-62
2022/06/02 14:08:38;;;;;;;4.88;3.83;;;;;;;;;;4991838;28;20185;-61
2022/06/02 14:11:22;;;;;;;3.90;3.60;;;;;;;;;;4998229;28;20587;-61
2022/06/02 14:13:57;;;;;;;4.70;4.30;;;;;;;;;;4996297;28;20296;-61
2022/06/02 14:16:31;;;;;;;4.00;3.70;;;;;;;;;;4995648;28;20663;-61
2022/06/02 14:18:57;;;;;;;5.22;4.72;;;;;;;;;;4995258;28;20217;-61
2022/06/02 14:21:30;;;;;;;6.03;3.80;;;;;;;;;;4995001;28;20194;-62
2022/06/02 14:24:05;;;;;;;4.45;4.15;;;;;;;;;;4993304;28;20190;-61
2022/06/02 14:26:30;;;;;;;4.30;3.95;;;;;;;;;;4992802;28;20543;-61
2022/06/02 14:28:59;;;;;;;5.40;3.88;;;;;;;;;;4996572;28;20213;-61
2022/06/02 14:31:37;;;;;;;4.20;3.90;;;;;;;;;;4985784;28;20229;-61
2022/06/02 14:34:15;;;;;;;4.35;4.05;;;;;;;;;;4995301;28;20213;-62
2022/06/02 14:36:54;;;;;;;4.45;4.13;;;;;;;;;;4991777;28;20189;-62
2022/06/02 14:39:39;;;;;;;4.57;4.22;;;;;;;;;;4993442;28;20189;-61
2022/06/02 14:42:17;;;;;;;4.47;4.07;;;;;;;;;;4996043;28;20415;-61
2022/06/02 14:44:52;;;;;;;5.30;4.50;;;;;;;;;;4986202;28;20572;-61
2022/06/02 14:47:30;;;;;;;5.90;4.90;;;;;;;;;;4991436;28;20186;-61
2022/06/02 14:50:03;;;;;;;5.20;4.80;;;;;;;;;;4989434;28;20186;-61
2022/06/02 14:52:44;;;;;;;6.25;4.30;;;;;;;;;;4989212;28;20212;-61
2022/06/02 14:55:16;;;;;;;4.65;3.85;;;;;;;;;;4993261;28;20672;-61
2022/06/02 14:57:47;;;;;;;4.68;3.60;;;;;;;;;;4988347;28;20261;-62
2022/06/02 15:00:36;;;;;;;4.20;3.90;;;;;;;;;;4991106;28;20190;-62
2022/06/02 15:03:19;;;;;;;3.90;3.50;;;;;;;;;;4964376;28;20212;-62
2022/06/02 15:05:54;;;;;;;3.20;3.00;;;;;;;;;;4989571;28;20225;-61
2022/06/02 15:08:37;;;;;;;5.43;3.53;;;;;;;;;;4986036;28;20308;-62
2022/06/02 15:11:04;;;;;;;3.97;3.67;;;;;;;;;;4985114;28;20275;-62
2022/06/02 15:16:22;;;;;;;3.53;3.33;;;;;;;;;;4990476;28;20333;-59
2022/06/02 15:18:56;;;;;;;3.50;3.20;;;;;;;;;;4994829;28;20220;-60
2022/06/02 15:21:25;;;;;;;2.97;2.78;;;;;;;;;;4992816;28;20522;-63
2022/06/02 15:24:03;;;;;;;3.97;3.30;;;;;;;;;;4986854;28;20181;-61
2022/06/02 15:26:40;;;;;;;3.80;3.40;;;;;;;;;;4991635;28;20201;-61
2022/06/02 15:29:06;;;;;;;4.10;3.80;;;;;;;;;;4988648;28;20206;-61
2022/06/02 15:31:33;;;;;;;4.38;3.97;;;;;;;;;;4987924;28;20209;-61
2022/06/02 15:34:08;;;;;;;4.25;3.67;;;;;;;;;;4988193;28;20210;-62
2022/06/02 15:36:53;;;;;;;7.15;3.90;;;;;;;;;;4990540;28;20654;-62
2022/06/02 15:39:37;;;;;;;4.22;3.83;;;;;;;;;;4985906;28;20652;-60
2022/06/02 15:42:21;;;;;;;3.95;3.55;;;;;;;;;;4988718;28;20186;-61
2022/06/02 15:45:01;;;;;;;4.72;4.32;;;;;;;;;;4986394;28;20256;-60